createdAt,value
2019-03-24T00:00:46.836Z,90.10
2019-03-24T00:03:15.262Z,90.30
2019-03-24T00:05:44.019Z,90.40
2019-03-24T00:08:12.546Z,90.40
2019-03-24T00:10:41.007Z,90.40
2019-03-24T00:13:09.458Z,90.40
2019-03-24T00:15:37.902Z,90.50
2019-03-24T00:18:06.354Z,90.60
2019-03-24T00:20:34.802Z,90.60
2019-03-24T00:23:03.241Z,90.60
2019-03-24T00:25:31.697Z,90.70
2019-03-24T00:28:00.175Z,90.80
2019-03-24T00:30:28.636Z,90.80
2019-03-24T00:32:57.052Z,90.90
2019-03-24T00:35:25.501Z,91.10
2019-03-24T00:37:53.946Z,91.40
2019-03-24T00:40:22.387Z,91.50
2019-03-24T00:42:50.859Z,91.30
2019-03-24T00:45:19.607Z,91.10
2019-03-24T00:47:49.507Z,91.00
2019-03-24T00:50:18.187Z,90.90
2019-03-24T00:52:46.679Z,91.00
2019-03-24T00:55:15.174Z,90.90
2019-03-24T00:57:43.626Z,91.00
2019-03-24T01:00:13.470Z,90.70
2019-03-24T01:02:41.915Z,90.70
2019-03-24T01:05:10.408Z,90.80
2019-03-24T01:07:38.882Z,90.90
2019-03-24T01:10:08.192Z,91.20
2019-03-24T01:12:36.656Z,91.50
2019-03-24T01:15:06.991Z,91.50
2019-03-24T01:17:36.007Z,91.50
2019-03-24T01:20:05.987Z,91.40
2019-03-24T01:22:34.433Z,91.30
2019-03-24T01:25:02.895Z,91.40
2019-03-24T01:27:31.352Z,91.30
2019-03-24T01:30:00.312Z,91.30
2019-03-24T01:32:29.321Z,91.40
2019-03-24T01:34:57.743Z,91.30
2019-03-24T01:37:26.207Z,91.30
2019-03-24T01:39:54.658Z,91.40
2019-03-24T01:42:23.121Z,91.30
2019-03-24T01:44:51.563Z,91.30
2019-03-24T01:47:20.027Z,91.30
2019-03-24T01:49:48.479Z,91.30
2019-03-24T01:52:16.935Z,91.30
2019-03-24T01:54:45.753Z,91.20
2019-03-24T01:57:14.195Z,91.20
2019-03-24T01:59:42.647Z,91.20
2019-03-24T02:02:11.080Z,91.00
2019-03-24T02:04:39.872Z,90.90
2019-03-24T02:07:08.338Z,91.10
2019-03-24T02:09:36.763Z,91.30
2019-03-24T02:12:05.345Z,91.30
2019-03-24T02:14:33.807Z,91.20
2019-03-24T02:17:02.286Z,91.40
2019-03-24T02:19:30.739Z,91.50
2019-03-24T02:21:59.180Z,91.70
2019-03-24T02:24:27.640Z,91.80
2019-03-24T02:26:56.073Z,91.80
2019-03-24T02:29:24.560Z,91.90
2019-03-24T02:31:53.002Z,92.00
2019-03-24T02:34:21.542Z,92.00
2019-03-24T02:36:50.023Z,92.00
2019-03-24T02:39:18.482Z,92.30
2019-03-24T02:41:46.919Z,92.30
2019-03-24T02:44:15.775Z,92.30
2019-03-24T02:46:44.538Z,92.30
2019-03-24T02:49:13.006Z,92.40
2019-03-24T02:51:41.443Z,92.40
2019-03-24T02:54:10.226Z,92.50
2019-03-24T02:56:38.659Z,92.50
2019-03-24T02:59:07.125Z,92.70
2019-03-24T03:01:35.599Z,92.80
2019-03-24T03:04:04.058Z,92.90
2019-03-24T03:06:32.493Z,93.00
2019-03-24T03:09:00.958Z,92.90
2019-03-24T03:11:29.412Z,92.90
2019-03-24T03:13:57.867Z,92.80
2019-03-24T03:16:37.927Z,92.90
2019-03-24T03:18:56.510Z,92.90
2019-03-24T03:21:25.216Z,92.90
2019-03-24T03:23:53.679Z,92.80
2019-03-24T03:26:22.142Z,92.60
2019-03-24T03:28:50.585Z,92.70
2019-03-24T03:31:19.021Z,92.70
2019-03-24T03:33:47.485Z,92.40
2019-03-24T03:36:15.940Z,92.30
2019-03-24T03:38:44.392Z,92.20
2019-03-24T03:41:12.950Z,92.10
2019-03-24T03:43:42.025Z,92.00
2019-03-24T03:46:10.510Z,92.00
2019-03-24T03:48:38.986Z,92.00
2019-03-24T03:51:07.443Z,92.20
2019-03-24T03:53:35.908Z,92.30
2019-03-24T03:56:04.770Z,92.40
2019-03-24T03:58:33.243Z,92.60
2019-03-24T04:01:01.990Z,92.70
2019-03-24T04:03:30.467Z,92.70
2019-03-24T04:05:58.914Z,92.80
2019-03-24T04:08:27.366Z,93.00
2019-03-24T04:10:55.832Z,93.20
2019-03-24T04:13:24.657Z,93.30
2019-03-24T04:15:53.493Z,93.30
2019-03-24T04:18:21.931Z,93.50
2019-03-24T04:20:50.385Z,93.50
2019-03-24T04:23:18.833Z,93.80
2019-03-24T04:25:47.299Z,94.20
2019-03-24T04:28:15.750Z,94.30
2019-03-24T04:30:44.192Z,94.30
2019-03-24T04:33:12.669Z,94.40
2019-03-24T04:35:41.140Z,94.50
2019-03-24T04:38:09.574Z,94.60
2019-03-24T04:40:38.061Z,94.50
2019-03-24T04:43:06.509Z,94.30
2019-03-24T04:45:34.971Z,94.20
2019-03-24T04:48:03.398Z,94.20
2019-03-24T04:50:31.879Z,94.30
2019-03-24T04:53:00.376Z,94.30
2019-03-24T04:55:28.885Z,94.20
2019-03-24T04:57:57.365Z,94.20
2019-03-24T05:00:28.903Z,94.20
2019-03-24T05:02:57.346Z,94.20
2019-03-24T05:05:26.160Z,94.40
2019-03-24T05:07:54.935Z,94.40
2019-03-24T05:10:28.033Z,94.30
2019-03-24T05:12:56.702Z,94.30
2019-03-24T05:15:25.460Z,94.20
2019-03-24T05:17:53.982Z,94.10
2019-03-24T05:20:22.437Z,94.00
2019-03-24T05:22:50.883Z,93.90
2019-03-24T05:25:19.345Z,93.80
2019-03-24T05:27:47.804Z,93.80
2019-03-24T05:30:16.312Z,93.90
2019-03-24T05:32:44.759Z,93.80
2019-03-24T05:35:13.305Z,93.70
2019-03-24T05:37:41.739Z,93.70
2019-03-24T05:40:10.390Z,93.90
2019-03-24T05:42:38.838Z,94.00
2019-03-24T05:45:09.584Z,94.20
2019-03-24T05:47:38.026Z,94.30
2019-03-24T05:50:08.204Z,94.50
2019-03-24T05:52:36.667Z,94.60
2019-03-24T05:55:07.426Z,94.90
2019-03-24T05:57:35.890Z,94.90
2019-03-24T06:00:07.413Z,94.90
2019-03-24T06:02:35.868Z,94.90
2019-03-24T06:05:06.163Z,94.90
2019-03-24T06:07:34.590Z,94.80
2019-03-24T06:10:03.860Z,94.90
2019-03-24T06:12:32.335Z,95.00
2019-03-24T06:15:00.777Z,95.00
2019-03-24T06:17:29.250Z,95.00
2019-03-24T06:19:57.685Z,94.90
2019-03-24T06:22:26.144Z,94.70
2019-03-24T06:24:54.602Z,94.40
2019-03-24T06:27:23.056Z,94.00
2019-03-24T06:29:51.501Z,93.80
2019-03-24T06:32:19.947Z,93.60
2019-03-24T06:34:48.383Z,93.30
2019-03-24T06:37:16.830Z,93.10
2019-03-24T06:39:45.301Z,92.90
2019-03-24T06:42:13.775Z,92.60
2019-03-24T06:44:42.284Z,92.40
2019-03-24T06:47:11.022Z,92.20
2019-03-24T06:49:39.472Z,92.10
2019-03-24T06:52:15.067Z,91.90
2019-03-24T06:54:43.523Z,91.70
2019-03-24T06:57:12.008Z,91.40
2019-03-24T06:59:40.448Z,91.30
2019-03-24T07:02:08.956Z,91.00
2019-03-24T07:04:37.428Z,90.60
2019-03-24T07:07:05.866Z,90.20
2019-03-24T07:09:34.306Z,90.10
2019-03-24T07:12:03.095Z,90.00
2019-03-24T07:14:31.619Z,89.80
2019-03-24T07:17:00.080Z,89.60
2019-03-24T07:19:28.523Z,89.60
2019-03-24T07:21:56.999Z,89.30
2019-03-24T07:24:25.452Z,89.10
2019-03-24T07:26:53.968Z,88.80
2019-03-24T07:29:27.159Z,88.70
2019-03-24T07:35:24.414Z,88.20
2019-03-24T07:37:52.866Z,87.70
2019-03-24T07:40:21.319Z,87.10
2019-03-24T07:42:50.086Z,86.90
2019-03-24T07:45:18.615Z,86.50
2019-03-24T07:47:48.966Z,85.80
2019-03-24T07:50:17.205Z,85.70
2019-03-24T07:52:45.690Z,84.80
2019-03-24T07:55:14.118Z,84.40
2019-03-24T07:57:42.602Z,84.80
2019-03-24T08:00:12.178Z,84.60
2019-03-24T08:02:51.269Z,84.90
2019-03-24T08:05:19.721Z,85.40
2019-03-24T08:07:48.176Z,84.50
2019-03-24T08:10:16.594Z,83.70
2019-03-24T08:12:45.086Z,83.60
2019-03-24T08:15:13.635Z,82.90
2019-03-24T08:17:42.081Z,82.10
2019-03-24T08:20:12.306Z,81.20
2019-03-24T08:22:40.912Z,80.70
2019-03-24T08:25:09.350Z,79.90
2019-03-24T08:27:37.825Z,79.30
2019-03-24T08:30:08.078Z,78.40
2019-03-24T08:32:36.521Z,78.80
2019-03-24T08:35:06.192Z,78.80
2019-03-24T08:37:34.661Z,78.30
2019-03-24T08:40:04.212Z,77.70
2019-03-24T08:42:33.138Z,78.10
2019-03-24T08:45:01.566Z,78.60
2019-03-24T08:47:30.023Z,78.30
2019-03-24T08:49:58.462Z,79.10
2019-03-24T08:52:26.896Z,78.20
2019-03-24T08:54:55.634Z,76.80
2019-03-24T08:57:24.068Z,77.30
2019-03-24T08:59:52.506Z,76.40
2019-03-24T09:02:21.302Z,75.80
2019-03-24T09:04:49.720Z,75.10
2019-03-24T09:07:18.155Z,75.30
2019-03-24T09:09:46.572Z,74.20
2019-03-24T09:12:15.028Z,73.00
2019-03-24T09:14:43.473Z,72.50
2019-03-24T09:17:11.913Z,71.90
2019-03-24T09:19:40.370Z,68.90
2019-03-24T09:22:08.796Z,71.20
2019-03-24T09:24:37.249Z,70.80
2019-03-24T09:27:05.732Z,70.20
2019-03-24T09:29:34.230Z,69.30
2019-03-24T09:32:02.709Z,66.30
2019-03-24T09:34:31.141Z,66.40
2019-03-24T09:36:59.566Z,67.90
2019-03-24T09:39:28.021Z,69.10
2019-03-24T09:41:56.483Z,68.50
2019-03-24T09:44:24.949Z,67.10
2019-03-24T09:46:53.375Z,66.80
2019-03-24T09:49:21.979Z,65.90
2019-03-24T09:51:50.397Z,65.00
2019-03-24T09:54:18.850Z,66.50
2019-03-24T09:56:47.286Z,67.30
2019-03-24T09:59:15.716Z,67.80
2019-03-24T10:01:44.197Z,68.20
2019-03-24T10:04:12.699Z,69.10
2019-03-24T10:06:41.162Z,66.70
2019-03-24T10:09:09.616Z,68.50
2019-03-24T10:11:38.067Z,69.90
2019-03-24T10:14:06.545Z,67.40
2019-03-24T10:16:34.994Z,67.80
2019-03-24T10:19:13.313Z,68.30
2019-03-24T10:21:33.602Z,71.10
2019-03-24T10:24:02.080Z,69.80
2019-03-24T10:26:30.533Z,67.80
2019-03-24T10:28:59.009Z,67.10
2019-03-24T10:31:27.784Z,67.80
2019-03-24T10:33:56.562Z,67.90
2019-03-24T10:36:25.461Z,68.50
2019-03-24T10:38:56.686Z,68.60
2019-03-24T10:41:25.131Z,70.60
2019-03-24T10:43:53.901Z,70.20
2019-03-24T10:46:22.346Z,70.20
2019-03-24T10:48:50.867Z,69.30
2019-03-24T10:51:20.993Z,65.30
2019-03-24T10:53:49.444Z,68.60
2019-03-24T10:56:17.909Z,67.60
2019-03-24T10:58:46.371Z,65.20
2019-03-24T11:01:14.821Z,64.80
2019-03-24T11:03:43.268Z,63.50
2019-03-24T11:06:11.716Z,64.50
2019-03-24T11:08:40.156Z,64.90
2019-03-24T11:11:08.629Z,63.80
2019-03-24T11:13:37.060Z,59.60
2019-03-24T11:16:05.529Z,63.80
2019-03-24T11:18:34.005Z,62.40
2019-03-24T11:21:02.466Z,61.20
2019-03-24T11:23:31.278Z,61.60
2019-03-24T11:25:59.728Z,61.00
2019-03-24T11:28:28.166Z,60.30
2019-03-24T11:30:56.633Z,56.60
2019-03-24T11:33:25.084Z,59.00
2019-03-24T11:35:53.609Z,59.80
2019-03-24T11:38:22.148Z,59.40
2019-03-24T11:40:50.632Z,57.30
2019-03-24T11:43:19.080Z,56.20
2019-03-24T11:45:47.534Z,57.90
2019-03-24T11:48:15.979Z,59.00
2019-03-24T11:50:44.436Z,61.30
2019-03-24T11:53:12.888Z,61.60
2019-03-24T11:55:41.332Z,64.50
2019-03-24T11:58:09.799Z,60.90
2019-03-24T12:00:39.613Z,60.60
2019-03-24T12:03:08.054Z,62.00
2019-03-24T12:05:36.861Z,62.60
2019-03-24T12:08:05.751Z,62.70
2019-03-24T12:10:34.216Z,61.00
2019-03-24T12:13:02.922Z,60.50
2019-03-24T12:15:31.396Z,56.10
2019-03-24T12:18:00.196Z,57.80
2019-03-24T12:20:28.711Z,59.40
2019-03-24T12:22:57.144Z,61.00
2019-03-24T12:25:25.600Z,60.30
2019-03-24T12:27:54.053Z,60.20
2019-03-24T12:30:22.526Z,61.90
2019-03-24T12:32:50.988Z,62.00
2019-03-24T12:35:19.456Z,62.20
2019-03-24T12:37:49.061Z,63.40
2019-03-24T12:40:17.694Z,63.70
2019-03-24T12:42:46.127Z,63.50
2019-03-24T12:45:15.345Z,63.20
2019-03-24T12:47:43.780Z,64.60
2019-03-24T12:50:14.067Z,66.50
2019-03-24T12:52:42.499Z,65.70
2019-03-24T12:55:11.412Z,66.70
2019-03-24T12:57:39.924Z,65.90
2019-03-24T13:00:13.698Z,67.10
2019-03-24T13:02:42.137Z,65.40
2019-03-24T13:05:12.029Z,64.80
2019-03-24T13:07:40.474Z,63.60
2019-03-24T13:10:09.571Z,65.80
2019-03-24T13:12:38.016Z,64.00
2019-03-24T13:15:08.280Z,64.90
2019-03-24T13:17:36.731Z,60.60
2019-03-24T13:20:07.818Z,63.20
2019-03-24T13:22:36.605Z,59.80
2019-03-24T13:25:07.292Z,60.10
2019-03-24T13:27:35.782Z,61.40
2019-03-24T13:30:06.173Z,63.40
2019-03-24T13:32:34.628Z,60.80
2019-03-24T13:35:03.092Z,61.50
2019-03-24T13:37:31.571Z,60.90
2019-03-24T13:40:00.012Z,58.20
2019-03-24T13:42:28.481Z,58.90
2019-03-24T13:44:56.966Z,58.60
2019-03-24T13:47:25.432Z,59.00
2019-03-24T13:49:53.903Z,59.40
2019-03-24T13:52:22.368Z,59.70
2019-03-24T13:54:50.817Z,57.90
2019-03-24T13:57:19.270Z,55.70
2019-03-24T13:59:47.709Z,53.00
2019-03-24T14:02:16.163Z,51.30
2019-03-24T14:04:44.601Z,51.40
2019-03-24T14:07:13.063Z,53.80
2019-03-24T14:09:41.510Z,54.80
2019-03-24T14:12:09.984Z,56.40
2019-03-24T14:14:38.450Z,54.90
2019-03-24T14:17:06.931Z,53.00
2019-03-24T14:19:35.668Z,53.40
2019-03-24T14:22:04.395Z,52.90
2019-03-24T14:24:33.299Z,50.30
2019-03-24T14:27:01.949Z,50.50
2019-03-24T14:29:30.389Z,50.00
2019-03-24T14:31:58.888Z,51.60
2019-03-24T14:34:27.355Z,50.00
2019-03-24T14:36:55.829Z,50.30
2019-03-24T14:39:24.282Z,52.00
2019-03-24T14:41:52.730Z,54.00
2019-03-24T14:44:21.176Z,56.00
2019-03-24T14:46:49.620Z,57.80
2019-03-24T14:49:18.056Z,59.60
2019-03-24T14:51:46.497Z,61.40
2019-03-24T14:54:15.191Z,64.20
2019-03-24T14:56:43.986Z,65.80
2019-03-24T14:59:13.039Z,66.50
2019-03-24T15:01:41.587Z,67.40
2019-03-24T15:04:10.066Z,67.70
2019-03-24T15:06:38.489Z,66.90
2019-03-24T15:09:07.704Z,66.40
2019-03-24T15:11:36.516Z,65.80
2019-03-24T15:14:05.488Z,66.40
2019-03-24T15:16:33.947Z,65.40
2019-03-24T15:19:02.417Z,64.60
2019-03-24T15:21:30.989Z,64.60
2019-03-24T15:23:59.425Z,64.90
2019-03-24T15:26:27.887Z,63.50
2019-03-24T15:28:56.349Z,63.80
2019-03-24T15:31:24.784Z,64.50
2019-03-24T15:33:53.245Z,64.00
2019-03-24T15:36:22.108Z,64.60
2019-03-24T15:38:50.559Z,64.60
2019-03-24T15:41:19.118Z,65.90
2019-03-24T15:43:48.300Z,67.10
2019-03-24T15:46:16.802Z,68.00
2019-03-24T15:48:45.388Z,68.50
2019-03-24T15:51:17.210Z,68.50
2019-03-24T15:53:44.865Z,68.50
2019-03-24T15:56:13.481Z,68.80
2019-03-24T15:58:41.974Z,68.40
2019-03-24T16:01:10.506Z,68.20
2019-03-24T16:03:39.001Z,68.10
2019-03-24T16:06:07.494Z,67.60
2019-03-24T16:08:35.944Z,67.40
2019-03-24T16:11:04.551Z,68.20
2019-03-24T16:13:33.023Z,68.40
2019-03-24T16:16:01.480Z,68.50
2019-03-24T16:18:29.953Z,68.50
2019-03-24T16:20:58.385Z,68.60
2019-03-24T16:23:26.870Z,68.40
2019-03-24T16:25:55.835Z,68.90
2019-03-24T16:28:24.442Z,68.80
2019-03-24T16:30:52.865Z,68.40
2019-03-24T16:33:21.338Z,68.50
2019-03-24T16:35:49.800Z,68.20
2019-03-24T16:38:18.261Z,68.80
2019-03-24T16:40:47.103Z,69.10
2019-03-24T16:43:15.537Z,68.90
2019-03-24T16:45:47.137Z,68.50
2019-03-24T16:48:15.204Z,69.10
2019-03-24T16:50:43.661Z,69.40
2019-03-24T16:53:18.550Z,68.40
2019-03-24T16:55:47.294Z,67.70
2019-03-24T16:58:15.767Z,67.10
2019-03-24T17:00:44.207Z,67.30
2019-03-24T17:03:12.644Z,67.90
2019-03-24T17:05:41.098Z,68.30
2019-03-24T17:08:09.532Z,68.90
2019-03-24T17:10:38.005Z,69.10
2019-03-24T17:13:06.454Z,69.70
2019-03-24T17:15:35.217Z,70.20
2019-03-24T17:18:04.245Z,70.70
2019-03-24T17:20:32.706Z,71.10
2019-03-24T17:23:01.133Z,71.50
2019-03-24T17:25:29.623Z,71.90
2019-03-24T17:27:58.040Z,72.20
2019-03-24T17:30:27.790Z,72.10
2019-03-24T17:32:56.241Z,72.40
2019-03-24T17:35:25.111Z,72.70
2019-03-24T17:37:53.849Z,72.90
2019-03-24T17:40:22.312Z,73.40
2019-03-24T17:42:50.781Z,73.70
2019-03-24T17:45:20.141Z,73.80
2019-03-24T17:47:48.604Z,74.10
2019-03-24T17:50:17.681Z,74.30
2019-03-24T17:52:46.117Z,74.60
2019-03-24T17:55:15.688Z,74.80
2019-03-24T17:57:44.139Z,75.20
2019-03-24T18:00:16.525Z,75.30
2019-03-24T18:02:44.978Z,75.30
2019-03-24T18:05:14.950Z,75.20
2019-03-24T18:07:43.555Z,75.20
2019-03-24T18:10:14.108Z,75.50
2019-03-24T18:12:42.509Z,75.90
2019-03-24T18:15:11.673Z,75.80
2019-03-24T18:17:40.419Z,75.90
2019-03-24T18:20:11.022Z,76.00
2019-03-24T18:22:39.454Z,76.00
2019-03-24T18:25:08.734Z,75.90
2019-03-24T18:27:37.148Z,75.80
2019-03-24T18:30:10.118Z,75.90
2019-03-24T18:32:38.911Z,75.80
2019-03-24T18:35:09.663Z,74.90
2019-03-24T18:37:38.121Z,74.80
2019-03-24T18:40:08.639Z,74.40
2019-03-24T18:42:37.832Z,74.40
2019-03-24T18:45:11.784Z,73.90
2019-03-24T18:47:40.213Z,74.00
2019-03-24T18:50:10.096Z,73.70
2019-03-24T18:52:38.817Z,73.10
2019-03-24T18:55:08.780Z,73.40
2019-03-24T18:57:37.842Z,73.00
2019-03-24T19:00:11.227Z,73.10
2019-03-24T19:02:39.657Z,73.10
2019-03-24T19:05:08.933Z,73.20
2019-03-24T19:07:37.969Z,73.10
2019-03-24T19:10:08.745Z,73.20
2019-03-24T19:12:38.640Z,73.20
2019-03-24T19:15:09.014Z,73.60
2019-03-24T19:17:37.480Z,73.50
2019-03-24T19:20:07.783Z,73.50
2019-03-24T19:22:36.749Z,73.50
2019-03-24T19:25:09.013Z,73.50
2019-03-24T19:27:37.451Z,73.60
2019-03-24T19:30:14.764Z,73.90
2019-03-24T19:32:44.208Z,74.00
2019-03-24T19:35:13.697Z,74.20
2019-03-24T19:37:45.240Z,74.30
2019-03-24T19:40:30.082Z,74.30
2019-03-24T19:42:58.595Z,74.40
2019-03-24T19:45:27.093Z,74.60
2019-03-24T19:47:56.455Z,74.80
2019-03-24T19:50:25.520Z,74.80
2019-03-24T19:52:53.980Z,75.10
2019-03-24T19:55:22.414Z,75.30
2019-03-24T19:57:50.874Z,75.60
2019-03-24T20:00:19.310Z,75.60
2019-03-24T20:02:47.819Z,75.40
2019-03-24T20:05:16.268Z,75.40
2019-03-24T20:07:48.122Z,75.70
2019-03-24T20:10:15.013Z,76.20
2019-03-24T20:12:43.468Z,76.40
2019-03-24T20:15:12.172Z,76.80
2019-03-24T20:17:40.703Z,76.30
2019-03-24T20:20:09.911Z,76.00
2019-03-24T20:22:38.363Z,76.50
2019-03-24T20:25:08.446Z,76.50
2019-03-24T20:27:36.913Z,76.80
2019-03-24T20:30:08.446Z,76.80
2019-03-24T20:32:37.076Z,76.30
2019-03-24T20:35:07.701Z,76.80
2019-03-24T20:37:36.485Z,76.80
2019-03-24T20:40:06.361Z,76.20
2019-03-24T20:42:34.854Z,76.20
2019-03-24T20:45:11.218Z,76.40
2019-03-24T20:47:41.238Z,75.40
2019-03-24T20:50:10.201Z,75.70
2019-03-24T20:52:40.237Z,75.80
2019-03-24T20:55:09.620Z,75.70
2019-03-24T20:57:38.102Z,75.70
2019-03-24T21:00:10.000Z,75.30
2019-03-24T21:02:38.558Z,75.50
2019-03-24T21:05:07.152Z,75.50
2019-03-24T21:07:37.632Z,75.60
2019-03-24T21:10:07.641Z,75.90
2019-03-24T21:12:36.470Z,76.00
2019-03-24T21:15:11.506Z,75.80
2019-03-24T21:17:39.727Z,75.80
2019-03-24T21:20:08.206Z,76.20
2019-03-24T21:22:36.690Z,76.20
2019-03-24T21:25:06.275Z,76.40
2019-03-24T21:27:34.772Z,76.50
2019-03-24T21:30:04.483Z,76.70
2019-03-24T21:32:32.988Z,76.40
2019-03-24T21:35:01.442Z,76.20
2019-03-24T21:37:32.813Z,76.40
2019-03-24T21:40:01.284Z,76.30
2019-03-24T21:43:06.664Z,76.50
2019-03-24T21:45:35.251Z,76.70
2019-03-24T21:48:03.782Z,76.70
2019-03-24T21:50:32.214Z,76.40
2019-03-24T21:53:00.662Z,76.30
2019-03-24T21:55:29.115Z,76.50
2019-03-24T21:57:58.053Z,76.50
2019-03-24T22:00:32.213Z,76.50
2019-03-24T22:03:02.243Z,76.90
2019-03-24T22:05:30.709Z,76.90
2019-03-24T22:07:59.236Z,77.00
2019-03-24T22:10:27.715Z,77.00
2019-03-24T22:12:56.159Z,76.90
2019-03-24T22:15:24.602Z,77.00
2019-03-24T22:17:53.531Z,76.90
2019-03-24T22:20:21.969Z,77.20
2019-03-24T22:22:50.422Z,77.20
2019-03-24T22:25:18.877Z,77.30
2019-03-24T22:27:47.636Z,77.40
2019-03-24T22:30:16.457Z,77.60
2019-03-24T22:32:44.985Z,77.60
2019-03-24T22:35:13.899Z,77.80
2019-03-24T22:37:42.350Z,77.90
2019-03-24T22:40:11.358Z,77.90
2019-03-24T22:42:39.827Z,78.10
2019-03-24T22:45:08.406Z,78.20
2019-03-24T22:47:36.867Z,78.20
2019-03-24T22:50:07.529Z,78.20
2019-03-24T22:52:36.041Z,78.10
2019-03-24T22:55:06.828Z,78.10
2019-03-24T22:57:35.254Z,78.10
2019-03-24T23:00:06.847Z,78.00
2019-03-24T23:02:35.286Z,78.10
2019-03-24T23:05:04.601Z,78.20
2019-03-24T23:07:33.097Z,78.40
2019-03-24T23:10:01.571Z,78.40
2019-03-24T23:12:30.003Z,78.40
2019-03-24T23:14:58.491Z,78.40
2019-03-24T23:17:27.987Z,78.40
2019-03-24T23:19:56.482Z,78.60
2019-03-24T23:22:24.948Z,78.70
2019-03-24T23:24:53.407Z,78.90
2019-03-24T23:27:21.872Z,78.40
2019-03-24T23:29:50.327Z,78.40
2019-03-24T23:32:18.785Z,78.40
2019-03-24T23:34:47.243Z,78.70
2019-03-24T23:37:15.680Z,78.80
2019-03-24T23:39:44.499Z,78.60
2019-03-24T23:42:12.948Z,77.30
2019-03-24T23:44:41.394Z,76.80
2019-03-24T23:47:10.154Z,76.70
2019-03-24T23:49:38.628Z,77.00
2019-03-24T23:52:07.112Z,77.00
2019-03-24T23:54:35.573Z,76.80
2019-03-24T23:57:04.025Z,75.70
2019-03-24T23:59:43.463Z,75.60
